Time;durP1;ratioP1;P1;durP2;ratioP2;P2;SDS_P1;SDS_P2;PMS_P1;PMS_P2;Temp;Humidity;BMP_temperature;BMP_pressure;BME280_temperature;BME280_humidity;BME280_pressure;Samples;Min_cycle;Max_cycle;Signal;HPM_P1;HPM_P2
2022/10/17 00:01:21;;;;;;;4.63;3.27;;;13.10;99.90;;;;;;4862058;29;20259;-87
2022/10/17 00:03:47;;;;;;;3.53;3.23;;;13.10;99.90;;;;;;4862080;29;20192;-87
2022/10/17 00:06:14;;;;;;;5.37;3.37;;;13.00;99.90;;;;;;4865896;29;20207;-87
2022/10/17 00:08:41;;;;;;;5.67;3.73;;;13.00;99.90;;;;;;4849340;29;20230;-87
2022/10/17 00:11:13;;;;;;;5.47;3.70;;;13.00;99.90;;;;;;4866600;29;20192;-87
2022/10/17 00:13:40;;;;;;;7.17;3.77;;;12.90;99.90;;;;;;4863753;29;20184;-87
2022/10/17 00:16:06;;;;;;;4.77;3.50;;;12.80;99.90;;;;;;4854629;29;20204;-87
2022/10/17 00:18:36;;;;;;;5.23;4.17;;;12.80;99.90;;;;;;4860808;29;20177;-87
2022/10/17 00:21:03;;;;;;;5.90;4.30;;;12.80;99.90;;;;;;4876993;29;20176;-87
2022/10/17 00:23:29;;;;;;;7.73;4.47;;;12.80;99.90;;;;;;4846699;29;20208;-87
2022/10/17 00:26:00;;;;;;;7.87;4.27;;;12.80;99.90;;;;;;4861546;29;20184;-87
2022/10/17 00:28:26;;;;;;;10.53;4.17;;;12.80;99.90;;;;;;4861234;29;20184;-87
2022/10/17 00:30:57;;;;;;;5.73;3.90;;;12.70;99.90;;;;;;4870890;29;20188;-87
2022/10/17 00:33:23;;;;;;;4.30;3.77;;;12.50;99.90;;;;;;4853970;29;20213;-87
2022/10/17 00:35:49;;;;;;;5.57;3.60;;;12.50;99.90;;;;;;4861462;29;20199;-87
2022/10/17 00:38:15;;;;;;;6.67;3.67;;;12.40;99.90;;;;;;4861271;29;20248;-87
2022/10/17 00:40:41;;;;;;;6.03;3.60;;;12.40;99.90;;;;;;4860877;29;20194;-87
2022/10/17 00:43:16;;;;;;;6.43;3.77;;;12.40;99.90;;;;;;4861246;29;20200;-87
2022/10/17 00:45:43;;;;;;;7.97;3.67;;;12.50;99.90;;;;;;4861239;29;20179;-87
2022/10/17 00:48:11;;;;;;;5.60;3.60;;;12.50;99.90;;;;;;4861319;29;20268;-87
2022/10/17 00:50:40;;;;;;;5.10;3.60;;;12.50;99.90;;;;;;4861075;29;20188;-87
2022/10/17 00:53:08;;;;;;;3.90;3.50;;;12.50;99.90;;;;;;4861334;29;20208;-87
2022/10/17 00:55:40;;;;;;;5.27;3.83;;;12.50;99.90;;;;;;4861118;29;20188;-87
2022/10/17 00:58:06;;;;;;;6.23;3.60;;;12.50;99.90;;;;;;4860937;29;20240;-87
2022/10/17 01:00:35;;;;;;;4.20;3.80;;;12.40;99.90;;;;;;4861208;29;20188;-87
2022/10/17 01:03:03;;;;;;;8.13;3.83;;;12.40;99.90;;;;;;4861370;29;20208;-87
2022/10/17 01:05:29;;;;;;;6.50;3.67;;;12.40;99.90;;;;;;4876408;29;20177;-87
2022/10/17 01:07:55;;;;;;;6.20;3.63;;;12.40;99.90;;;;;;4861191;29;20192;-87
2022/10/17 01:11:02;;;;;;;7.73;3.70;;;12.40;99.90;;;;;;4861117;29;20196;-87
2022/10/17 01:14:00;;;;;;;4.23;3.77;;;12.50;99.90;;;;;;4861137;29;20221;-87
2022/10/17 01:16:35;;;;;;;4.00;3.33;;;12.50;99.90;;;;;;4860687;29;20216;-87
2022/10/17 01:19:24;;;;;;;6.63;3.77;;;12.50;99.90;;;;;;4860441;29;20192;-87
2022/10/17 01:22:06;;;;;;;6.50;3.50;;;12.50;99.90;;;;;;4852816;29;20208;-87
2022/10/17 01:25:03;;;;;;;6.90;3.60;;;12.40;99.90;;;;;;4860095;29;20193;-87
2022/10/17 01:27:35;;;;;;;4.47;3.03;;;12.40;99.90;;;;;;4860420;29;20187;-87
2022/10/17 01:30:13;;;;;;;6.17;3.80;;;12.40;99.90;;;;;;4860506;29;20203;-87
2022/10/17 01:33:09;;;;;;;4.73;3.70;;;12.30;99.90;;;;;;4860624;29;20212;-87
2022/10/17 01:35:40;;;;;;;3.90;3.30;;;12.40;99.90;;;;;;4845311;29;20222;-87
2022/10/17 01:38:15;;;;;;;5.33;3.23;;;12.30;99.90;;;;;;4860066;29;20216;-87
2022/10/17 01:40:59;;;;;;;6.13;3.40;;;12.40;99.90;;;;;;4860428;29;20190;-87
2022/10/17 01:43:39;;;;;;;3.80;3.33;;;12.30;99.90;;;;;;4860279;29;20204;-87
2022/10/17 01:46:29;;;;;;;4.23;3.13;;;12.30;99.90;;;;;;4860341;29;20265;-87
2022/10/17 01:48:59;;;;;;;4.07;3.17;;;12.20;99.90;;;;;;4843260;29;20249;-87
2022/10/17 01:51:43;;;;;;;6.87;3.20;;;12.20;99.90;;;;;;4856958;29;20226;-87
2022/10/17 01:54:13;;;;;;;3.77;3.20;;;12.10;99.90;;;;;;4863872;29;20184;-87
2022/10/17 01:56:41;;;;;;;6.20;3.27;;;12.10;99.90;;;;;;4874615;29;20239;-87
2022/10/17 01:59:16;;;;;;;5.60;2.80;;;12.00;99.90;;;;;;4863406;29;20195;-87
2022/10/17 02:01:46;;;;;;;3.73;3.10;;;12.10;99.90;;;;;;4862456;29;20213;-87
2022/10/17 02:04:12;;;;;;;4.63;3.50;;;12.10;99.90;;;;;;4855481;29;20183;-87
2022/10/17 02:06:38;;;;;;;3.70;3.00;;;12.10;99.90;;;;;;4859762;29;20187;-87
2022/10/17 02:09:23;;;;;;;4.43;3.27;;;12.10;99.90;;;;;;4860194;29;20238;-86
2022/10/17 02:12:05;;;;;;;3.47;3.00;;;12.00;99.90;;;;;;4870152;29;20250;-87
2022/10/17 02:15:05;;;;;;;6.07;3.00;;;12.00;99.90;;;;;;4860129;29;20184;-87
2022/10/17 02:17:51;;;;;;;3.30;3.00;;;12.00;99.90;;;;;;4859526;29;20220;-87
2022/10/17 02:20:48;;;;;;;4.63;3.13;;;12.00;99.90;;;;;;4859497;29;20181;-87
2022/10/17 02:23:36;;;;;;;5.87;2.93;;;12.00;99.90;;;;;;4859364;29;20225;-87
2022/10/17 02:26:13;;;;;;;4.83;2.63;;;11.90;99.90;;;;;;4859681;29;20180;-87
2022/10/17 02:29:08;;;;;;;3.57;2.87;;;11.90;99.90;;;;;;4859421;29;20179;-87
2022/10/17 02:31:43;;;;;;;3.10;2.80;;;11.80;99.90;;;;;;4857228;29;20277;-87
2022/10/17 02:34:28;;;;;;;4.17;2.73;;;11.80;99.90;;;;;;4859712;29;20183;-87
2022/10/17 02:37:00;;;;;;;4.90;3.10;;;11.80;99.90;;;;;;4869424;29;20219;-87
2022/10/17 02:39:28;;;;;;;5.77;3.00;;;11.80;99.90;;;;;;4859338;29;20204;-87
2022/10/17 02:41:58;;;;;;;3.37;2.80;;;11.80;99.90;;;;;;4859491;29;20206;-87
2022/10/17 02:44:25;;;;;;;3.37;2.90;;;11.80;99.90;;;;;;4859280;29;20187;-87
2022/10/17 02:46:58;;;;;;;5.97;2.70;;;11.80;99.90;;;;;;4859277;29;20331;-87
2022/10/17 02:49:30;;;;;;;4.00;2.80;;;11.80;99.90;;;;;;4859293;29;20187;-87
2022/10/17 02:52:25;;;;;;;5.67;2.73;;;11.80;99.90;;;;;;4871244;29;20283;-87
2022/10/17 02:54:55;;;;;;;3.93;2.87;;;11.80;99.90;;;;;;4853547;29;20285;-87
2022/10/17 02:57:33;;;;;;;5.03;3.60;;;11.80;99.90;;;;;;4877652;29;20210;-87
2022/10/17 03:00:01;;;;;;;2.87;2.53;;;11.70;99.90;;;;;;4825716;29;20221;-87
2022/10/17 03:02:28;;;;;;;4.13;2.73;;;11.70;99.90;;;;;;4840769;29;20207;-87
2022/10/17 03:04:55;;;;;;;3.13;2.83;;;11.70;99.90;;;;;;4825668;29;20194;-87
2022/10/17 03:07:21;;;;;;;4.30;3.00;;;11.60;99.90;;;;;;4866630;29;20179;-87
2022/10/17 03:09:46;;;;;;;4.53;3.13;;;11.50;99.90;;;;;;4846707;29;20193;-87
2022/10/17 03:12:12;;;;;;;4.60;2.80;;;11.60;99.90;;;;;;4858977;29;20304;-87
2022/10/17 03:14:38;;;;;;;3.90;2.83;;;11.60;99.90;;;;;;4868770;29;20280;-87
2022/10/17 03:17:04;;;;;;;4.77;2.67;;;11.50;99.90;;;;;;4861840;29;20209;-86
2022/10/17 03:19:43;;;;;;;3.00;2.63;;;11.50;99.90;;;;;;4861936;29;20184;-87
2022/10/17 03:22:11;;;;;;;2.83;2.57;;;11.40;99.90;;;;;;4861690;29;20208;-86
2022/10/17 03:24:39;;;;;;;5.67;2.70;;;11.50;99.90;;;;;;4862322;29;20191;-87
2022/10/17 03:27:05;;;;;;;7.47;3.07;;;11.50;99.90;;;;;;4853602;29;20196;-87
2022/10/17 03:29:31;;;;;;;3.77;2.40;;;11.40;99.90;;;;;;4858959;29;20220;-87
2022/10/17 03:31:57;;;;;;;3.87;2.97;;;11.30;99.90;;;;;;4858805;29;20222;-87
2022/10/17 03:34:24;;;;;;;3.30;2.47;;;11.30;99.90;;;;;;4843675;29;20239;-86
2022/10/17 03:36:50;;;;;;;2.80;2.60;;;11.40;99.90;;;;;;4858485;29;20220;-87
2022/10/17 03:39:17;;;;;;;6.13;2.50;;;11.40;99.90;;;;;;4855462;29;20188;-87
2022/10/17 03:45:23;;;;;;;2.40;2.20;;;11.40;99.90;;;;;;4865209;29;20263;-89
2022/10/17 03:48:03;;;;;;;3.60;2.77;;;11.30;99.90;;;;;;4858465;29;20197;-89
2022/10/17 03:50:50;;;;;;;3.87;2.47;;;11.30;99.90;;;;;;4843579;29;20187;-89
2022/10/17 03:53:21;;;;;;;2.77;2.47;;;11.30;99.90;;;;;;4858055;29;20212;-88
2022/10/17 03:56:23;;;;;;;4.90;2.90;;;11.30;99.90;;;;;;4857908;29;20225;-89
2022/10/17 03:59:02;;;;;;;3.60;2.50;;;11.20;99.90;;;;;;4855372;29;20232;-88
2022/10/17 04:01:31;;;;;;;6.17;2.73;;;11.10;99.90;;;;;;4842891;29;20209;-88
2022/10/17 04:03:58;;;;;;;3.03;2.73;;;11.10;99.90;;;;;;4858547;29;20184;-88
2022/10/17 04:06:28;;;;;;;4.20;3.17;;;11.00;99.90;;;;;;4859068;29;20208;-89
2022/10/17 04:08:54;;;;;;;5.73;3.20;;;11.00;99.90;;;;;;4862407;29;20187;-88
2022/10/17 04:11:33;;;;;;;3.13;2.43;;;10.90;99.90;;;;;;4860296;29;20200;-88
2022/10/17 04:14:01;;;;;;;5.20;2.80;;;10.80;99.90;;;;;;4858653;29;20178;-88
2022/10/17 04:16:29;;;;;;;4.50;3.00;;;10.70;99.90;;;;;;4844828;29;20218;-87
2022/10/17 04:18:59;;;;;;;4.70;2.67;;;10.60;99.90;;;;;;4862436;29;20178;-88
2022/10/17 04:21:29;;;;;;;4.93;3.17;;;10.60;99.90;;;;;;4846934;29;20178;-87
2022/10/17 04:23:59;;;;;;;5.57;2.70;;;10.60;99.90;;;;;;4861875;29;20188;-88
2022/10/17 04:26:57;;;;;;;4.63;2.60;;;10.60;99.90;;;;;;4860886;29;20187;-88
2022/10/17 04:29:27;;;;;;;2.83;2.63;;;10.60;99.90;;;;;;4862034;29;20199;-88
2022/10/17 04:32:02;;;;;;;2.60;2.40;;;10.60;99.90;;;;;;4861787;29;20220;-88
2022/10/17 04:35:07;;;;;;;3.30;2.87;;;10.70;99.90;;;;;;4861991;29;20188;-88
2022/10/17 04:37:33;;;;;;;3.47;2.43;;;10.60;99.90;;;;;;4861267;29;20214;-88
2022/10/17 04:40:05;;;;;;;2.87;2.57;;;10.70;99.90;;;;;;4861471;29;20274;-88
2022/10/17 04:42:32;;;;;;;3.00;2.60;;;10.70;99.90;;;;;;4861483;29;20209;-87
2022/10/17 04:44:58;;;;;;;2.87;2.57;;;10.70;99.90;;;;;;4861895;29;20183;-88
2022/10/17 04:47:25;;;;;;;2.73;2.53;;;10.80;99.90;;;;;;4861559;29;20182;-87
2022/10/17 04:49:52;;;;;;;3.37;2.40;;;10.70;99.90;;;;;;4861731;29;20201;-87
2022/10/17 04:52:20;;;;;;;3.37;2.63;;;10.70;99.90;;;;;;4861611;29;20199;-87
2022/10/17 04:54:48;;;;;;;3.73;2.63;;;10.70;99.90;;;;;;4861783;29;20237;-87
2022/10/17 04:57:14;;;;;;;4.17;2.90;;;10.70;99.90;;;;;;4861820;29;20230;-87
2022/10/17 04:59:44;;;;;;;6.67;3.37;;;10.70;99.90;;;;;;4861701;29;20194;-87
2022/10/17 05:02:17;;;;;;;5.10;3.00;;;10.60;99.90;;;;;;4862410;29;20266;-87
2022/10/17 05:04:44;;;;;;;4.30;2.73;;;10.70;99.90;;;;;;4861834;29;20187;-87
2022/10/17 05:07:11;;;;;;;3.13;2.83;;;10.60;99.90;;;;;;4861634;29;20181;-87
2022/10/17 05:10:00;;;;;;;4.53;2.80;;;10.70;99.90;;;;;;4861425;29;20201;-87
2022/10/17 05:12:27;;;;;;;3.60;3.30;;;10.70;99.90;;;;;;4862015;29;20209;-87
2022/10/17 05:14:53;;;;;;;3.87;3.20;;;10.70;99.90;;;;;;4861678;29;20543;-87
2022/10/17 05:17:23;;;;;;;4.50;3.10;;;10.70;99.90;;;;;;4861830;29;20210;-87
2022/10/17 05:19:49;;;;;;;4.97;3.30;;;10.60;99.90;;;;;;4861837;29;20278;-87
2022/10/17 05:22:16;;;;;;;4.20;3.63;;;10.60;99.90;;;;;;4861741;29;20207;-88
2022/10/17 05:24:42;;;;;;;4.13;3.37;;;10.60;99.90;;;;;;4860229;29;20192;-88
2022/10/17 05:27:09;;;;;;;3.43;3.13;;;10.60;99.90;;;;;;4859808;29;20186;-88
2022/10/17 05:29:44;;;;;;;3.60;2.77;;;10.70;99.90;;;;;;4844640;29;20192;-88
2022/10/17 05:32:23;;;;;;;5.83;3.20;;;10.70;99.90;;;;;;4854495;29;20228;-80
2022/10/17 05:35:04;;;;;;;3.03;2.80;;;10.70;99.90;;;;;;4857699;29;20192;-89
2022/10/17 05:37:31;;;;;;;3.53;3.23;;;10.70;99.90;;;;;;4860873;29;20214;-89
2022/10/17 05:39:58;;;;;;;4.20;3.73;;;10.60;99.90;;;;;;4860507;29;20192;-89
2022/10/17 05:42:26;;;;;;;5.97;4.17;;;10.60;99.90;;;;;;4859892;29;20201;-89
2022/10/17 05:44:52;;;;;;;3.73;3.40;;;10.60;99.90;;;;;;4860852;29;20189;-89
2022/10/17 05:47:19;;;;;;;5.20;3.80;;;10.60;99.90;;;;;;4849739;29;20190;-89
2022/10/17 05:49:44;;;;;;;4.37;2.60;;;10.50;99.90;;;;;;4842384;29;20196;-89
2022/10/17 05:52:11;;;;;;;3.27;2.67;;;10.50;99.90;;;;;;4845082;29;20281;-89
2022/10/17 05:54:51;;;;;;;3.00;2.67;;;10.50;99.90;;;;;;4862952;29;20534;-89
2022/10/17 05:57:17;;;;;;;2.70;2.50;;;10.50;99.90;;;;;;4860038;29;20240;-89
2022/10/17 05:59:43;;;;;;;4.00;2.77;;;10.50;99.90;;;;;;4846726;29;20179;-89
2022/10/17 06:02:17;;;;;;;3.17;2.87;;;10.50;99.90;;;;;;4843896;29;20248;-89
2022/10/17 06:04:44;;;;;;;5.03;3.30;;;10.50;99.90;;;;;;4854664;29;20185;-89
2022/10/17 06:07:12;;;;;;;3.80;3.20;;;10.50;99.90;;;;;;4859977;29;20189;-89
2022/10/17 06:09:38;;;;;;;3.70;3.17;;;10.50;99.90;;;;;;4859445;29;20187;-89
2022/10/17 06:12:06;;;;;;;4.27;2.90;;;10.60;99.90;;;;;;4860338;29;20212;-90
2022/10/17 06:14:32;;;;;;;5.73;3.30;;;10.60;99.90;;;;;;4844590;29;20279;-89
2022/10/17 06:17:33;;;;;;;6.80;3.60;;;10.60;99.90;;;;;;4858392;29;20216;-89
2022/10/17 06:19:59;;;;;;;7.57;3.83;;;10.70;99.90;;;;;;4859039;29;20193;-88
2022/10/17 06:22:25;;;;;;;4.93;3.20;;;10.70;99.90;;;;;;4857619;29;20209;-89
2022/10/17 06:25:04;;;;;;;6.67;3.57;;;10.70;99.90;;;;;;4860041;29;20644;-88
2022/10/17 06:27:31;;;;;;;7.90;3.83;;;10.80;99.90;;;;;;4845351;29;20192;-89
2022/10/17 06:30:00;;;;;;;4.57;3.60;;;10.80;99.90;;;;;;4841351;29;20204;-89
2022/10/17 06:32:28;;;;;;;5.00;3.67;;;10.90;99.90;;;;;;4860148;29;20229;-90
2022/10/17 06:35:12;;;;;;;6.83;3.50;;;10.90;99.90;;;;;;4844200;29;20228;-90
2022/10/17 06:37:43;;;;;;;8.27;3.20;;;10.90;99.90;;;;;;4856384;29;20203;-90
2022/10/17 06:40:23;;;;;;;3.67;3.37;;;10.90;99.90;;;;;;4859230;29;20663;-91
2022/10/17 06:43:02;;;;;;;4.13;3.30;;;11.00;99.90;;;;;;4859526;29;20228;-91
2022/10/17 06:45:55;;;;;;;4.43;3.37;;;10.90;99.90;;;;;;4859116;29;20273;-91
2022/10/17 06:48:54;;;;;;;8.77;3.53;;;10.90;99.90;;;;;;4858555;29;20191;-89
2022/10/17 06:51:59;;;;;;;6.47;3.10;;;11.00;99.90;;;;;;4851957;29;20278;-89
2022/10/17 06:54:44;;;;;;;4.97;4.03;;;11.00;99.90;;;;;;4856771;29;20189;-89
2022/10/17 06:57:47;;;;;;;4.77;3.50;;;11.00;99.90;;;;;;4847122;29;20201;-89
2022/10/17 07:00:28;;;;;;;5.67;3.60;;;11.00;99.90;;;;;;4849894;29;20208;-89
2022/10/17 07:03:02;;;;;;;4.83;3.30;;;11.10;99.90;;;;;;4859093;29;20202;-89
2022/10/17 07:05:51;;;;;;;5.67;3.67;;;11.20;99.90;;;;;;4844452;29;20219;-89
2022/10/17 07:08:18;;;;;;;4.60;3.83;;;11.40;99.90;;;;;;4859254;29;20732;-89
2022/10/17 07:11:20;;;;;;;5.83;4.07;;;11.60;99.90;;;;;;4859444;29;20179;-89
2022/10/17 07:13:53;;;;;;;8.40;4.23;;;11.70;99.90;;;;;;4857483;29;20219;-89
2022/10/17 07:16:23;;;;;;;6.13;4.00;;;11.80;99.90;;;;;;4859594;29;20260;-89
2022/10/17 07:19:00;;;;;;;7.27;4.00;;;12.00;99.90;;;;;;4859305;29;20187;-89
2022/10/17 07:21:32;;;;;;;4.57;4.10;;;12.10;99.90;;;;;;4859375;29;20331;-89
2022/10/17 07:24:17;;;;;;;5.27;3.90;;;12.20;99.90;;;;;;4844266;29;20194;-89
2022/10/17 07:26:55;;;;;;;5.40;3.40;;;12.30;99.90;;;;;;4845992;29;20172;-89
2022/10/17 07:29:21;;;;;;;5.13;3.80;;;12.40;99.90;;;;;;4829898;29;20180;-89
2022/10/17 07:32:07;;;;;;;5.03;3.63;;;12.50;99.90;;;;;;4844164;29;20247;-89
2022/10/17 07:34:56;;;;;;;8.13;4.30;;;12.70;99.90;;;;;;4845006;29;20218;-89
2022/10/17 07:37:29;;;;;;;6.50;3.57;;;12.70;99.90;;;;;;4840407;29;20239;-89
2022/10/17 07:39:57;;;;;;;3.90;3.50;;;12.90;99.90;;;;;;4857699;29;20214;-89
2022/10/17 07:43:03;;;;;;;5.20;3.83;;;13.00;99.90;;;;;;4843786;29;20227;-89
2022/10/17 07:49:12;;;;;;;4.47;3.57;;;13.30;99.90;;;;;;4855203;29;20189;-85
2022/10/17 07:51:40;;;;;;;5.30;3.80;;;13.50;99.90;;;;;;4843010;29;20216;-85
2022/10/17 07:54:07;;;;;;;6.57;3.50;;;13.70;99.90;;;;;;4838163;29;20283;-84
2022/10/17 07:56:51;;;;;;;7.27;3.97;;;13.80;99.90;;;;;;4861278;29;20216;-90
2022/10/17 07:59:24;;;;;;;8.33;3.70;;;13.90;99.90;;;;;;4845166;29;20185;-90
2022/10/17 08:01:55;;;;;;;5.00;4.00;;;14.00;99.90;;;;;;4862771;29;20291;-90
2022/10/17 08:07:43;;;;;;;6.87;4.03;;;14.20;99.90;;;;;;4861237;29;20193;-90
2022/10/17 08:10:16;;;;;;;4.83;3.13;;;14.20;99.90;;;;;;4875959;29;20235;-89
2022/10/17 08:12:42;;;;;;;5.63;3.53;;;14.40;99.90;;;;;;4846290;29;20704;-89
2022/10/17 08:15:09;;;;;;;3.70;3.03;;;14.50;99.90;;;;;;4862639;29;20188;-90
2022/10/17 08:17:37;;;;;;;5.37;3.50;;;14.50;99.90;;;;;;4858762;29;20679;-90
2022/10/17 08:20:04;;;;;;;5.80;3.10;;;14.60;99.90;;;;;;4874019;29;20283;-90
2022/10/17 08:22:31;;;;;;;5.00;2.97;;;14.80;99.90;;;;;;4846673;29;20238;-90
2022/10/17 08:24:57;;;;;;;3.40;3.10;;;14.90;99.90;;;;;;4862967;29;20201;-88
2022/10/17 08:27:24;;;;;;;3.33;3.03;;;15.10;99.90;;;;;;4862269;29;20193;-87
2022/10/17 08:29:53;;;;;;;6.70;3.27;;;15.10;99.90;;;;;;4861792;29;20248;-87
2022/10/17 08:32:25;;;;;;;5.27;3.30;;;15.20;99.90;;;;;;4849954;29;20224;-87
2022/10/17 08:34:56;;;;;;;3.03;2.73;;;15.20;99.90;;;;;;4843201;29;20199;-88
2022/10/17 08:37:37;;;;;;;4.00;2.80;;;15.30;99.90;;;;;;4860116;29;20236;-87
2022/10/17 08:40:04;;;;;;;4.40;2.90;;;15.40;99.90;;;;;;4861757;29;20199;-87
2022/10/17 08:42:37;;;;;;;5.03;3.03;;;15.50;99.90;;;;;;4861832;29;20239;-87
2022/10/17 08:45:20;;;;;;;5.43;2.80;;;15.60;99.90;;;;;;4862115;29;20204;-87
2022/10/17 08:47:56;;;;;;;5.33;3.10;;;15.70;99.90;;;;;;4861432;29;20202;-88
2022/10/17 08:50:31;;;;;;;6.83;2.93;;;15.70;99.90;;;;;;4861607;29;20199;-87
2022/10/17 08:53:18;;;;;;;5.70;3.00;;;15.80;99.90;;;;;;4861418;29;20215;-87
2022/10/17 08:55:52;;;;;;;3.10;2.50;;;16.00;99.90;;;;;;4892213;29;20173;-87
2022/10/17 08:58:22;;;;;;;6.43;2.90;;;16.20;99.90;;;;;;4861155;29;20319;-86
2022/10/17 09:01:02;;;;;;;5.00;2.60;;;16.30;99.90;;;;;;4860983;29;20177;-87
2022/10/17 09:03:51;;;;;;;5.07;3.07;;;16.50;99.90;;;;;;4859609;29;20200;-88
2022/10/17 09:06:24;;;;;;;5.70;2.70;;;16.60;99.90;;;;;;4860619;29;20188;-88
2022/10/17 09:08:56;;;;;;;2.92;2.22;;;16.70;99.90;;;;;;4860886;29;20204;-87
2022/10/17 09:11:43;;;;;;;3.50;2.67;;;16.80;99.90;;;;;;4861501;29;20196;-87
2022/10/17 09:14:12;;;;;;;6.78;2.90;;;17.00;99.90;;;;;;4861100;29;20165;-87
2022/10/17 09:17:11;;;;;;;3.13;2.47;;;17.20;99.90;;;;;;4860560;29;20220;-87
2022/10/17 09:19:42;;;;;;;4.63;2.53;;;17.40;99.90;;;;;;4861171;29;20237;-87
2022/10/17 09:22:18;;;;;;;3.58;2.50;;;17.50;99.90;;;;;;4860830;29;20208;-87
2022/10/17 09:24:51;;;;;;;3.42;2.38;;;17.60;99.90;;;;;;4860855;29;20217;-87
2022/10/17 09:27:21;;;;;;;4.10;2.53;;;17.70;99.90;;;;;;4860877;29;20283;-87
2022/10/17 09:29:49;;;;;;;5.45;3.15;;;17.80;99.90;;;;;;4861177;29;20259;-87
2022/10/17 09:32:23;;;;;;;7.50;3.00;;;17.90;99.90;;;;;;4860359;29;20215;-87
2022/10/17 09:34:50;;;;;;;3.90;2.83;;;18.00;99.90;;;;;;4860670;29;20184;-87
2022/10/17 09:37:16;;;;;;;4.93;2.97;;;18.10;99.90;;;;;;4860199;29;20287;-87
2022/10/17 09:39:43;;;;;;;4.40;2.55;;;18.30;99.90;;;;;;4860438;29;20180;-87
2022/10/17 09:42:13;;;;;;;5.22;2.80;;;18.40;99.90;;;;;;4860211;29;20204;-87
2022/10/17 09:45:03;;;;;;;4.30;2.60;;;18.60;99.90;;;;;;4860769;29;20173;-87
2022/10/17 09:47:29;;;;;;;3.65;2.47;;;18.70;99.90;;;;;;4860621;29;20184;-86
2022/10/17 09:49:56;;;;;;;5.70;2.47;;;18.80;99.90;;;;;;4860598;29;20757;-87
2022/10/17 09:52:47;;;;;;;3.95;2.60;;;18.90;99.90;;;;;;4860574;29;20212;-87
2022/10/17 09:55:30;;;;;;;5.20;2.92;;;19.00;99.90;;;;;;4845411;29;20646;-88
2022/10/17 09:58:04;;;;;;;5.70;2.40;;;19.10;99.90;;;;;;4860178;29;20257;-87
2022/10/17 10:00:33;;;;;;;6.90;2.42;;;19.30;99.90;;;;;;4859983;29;20192;-87
2022/10/17 10:03:11;;;;;;;6.95;2.40;;;19.30;99.90;;;;;;4844786;29;20208;-87
2022/10/17 10:06:15;;;;;;;5.22;2.40;;;19.40;99.90;;;;;;4844354;29;20184;-87
2022/10/17 10:08:51;;;;;;;3.85;2.53;;;19.50;99.90;;;;;;4858384;29;20192;-87
2022/10/17 10:11:22;;;;;;;4.60;2.28;;;19.60;99.90;;;;;;4857864;29;20192;-87
2022/10/17 10:13:48;;;;;;;4.38;2.33;;;19.70;99.90;;;;;;4859933;29;20196;-87
2022/10/17 10:16:18;;;;;;;2.40;2.20;;;19.90;99.90;;;;;;4860180;29;20192;-88
2022/10/17 10:18:45;;;;;;;4.18;2.05;;;20.00;99.90;;;;;;4859310;29;20185;-88
2022/10/17 10:21:18;;;;;;;2.42;2.03;;;20.10;99.90;;;;;;4859865;29;20189;-88
2022/10/17 10:24:06;;;;;;;4.55;1.95;;;20.20;99.90;;;;;;4860158;29;20188;-88
2022/10/17 10:26:49;;;;;;;3.38;2.30;;;20.20;99.90;;;;;;4875508;29;20217;-88
2022/10/17 10:29:23;;;;;;;3.90;2.50;;;20.30;99.90;;;;;;4859803;29;20184;-88
2022/10/17 10:31:50;;;;;;;5.22;2.45;;;20.30;99.90;;;;;;4859428;29;20219;-88
2022/10/17 10:34:27;;;;;;;6.43;2.42;;;20.30;99.90;;;;;;4859912;29;20181;-87
2022/10/17 10:37:13;;;;;;;4.78;2.55;;;20.40;99.90;;;;;;4859355;29;20216;-88
2022/10/17 10:39:46;;;;;;;3.33;2.38;;;20.50;99.90;;;;;;4859438;29;20189;-88
2022/10/17 10:42:28;;;;;;;3.72;2.70;;;20.60;99.90;;;;;;4859662;29;20208;-88
2022/10/17 10:45:14;;;;;;;3.20;2.38;;;20.70;99.90;;;;;;4859579;29;20173;-88
2022/10/17 10:47:56;;;;;;;3.08;2.22;;;20.90;99.90;;;;;;4859661;29;20169;-88
2022/10/17 10:50:28;;;;;;;2.53;2.30;;;21.00;99.90;;;;;;4860147;29;20181;-88
2022/10/17 10:53:16;;;;;;;4.80;2.05;;;21.10;99.90;;;;;;4860521;29;20406;-88
2022/10/17 10:56:11;;;;;;;3.03;2.50;;;21.20;99.90;;;;;;4860854;29;20219;-88
2022/10/17 10:59:04;;;;;;;3.97;2.40;;;21.20;99.90;;;;;;4858981;29;20176;-88
2022/10/17 11:01:49;;;;;;;4.97;2.58;;;21.30;99.90;;;;;;4859518;29;20181;-87
2022/10/17 11:04:39;;;;;;;3.35;2.22;;;21.30;99.90;;;;;;4859389;29;20165;-88
2022/10/17 11:07:11;;;;;;;3.50;2.30;;;21.40;99.90;;;;;;4859073;29;20189;-87
2022/10/17 11:09:56;;;;;;;2.45;2.05;;;21.50;99.90;;;;;;4858946;29;20226;-88
2022/10/17 11:12:32;;;;;;;3.65;2.20;;;21.60;99.90;;;;;;4859137;29;20280;-88
2022/10/17 11:15:17;;;;;;;3.28;2.30;;;21.70;99.90;;;;;;4859182;29;20282;-88
2022/10/17 11:18:06;;;;;;;3.83;2.25;;;21.90;99.90;;;;;;4856006;29;20243;-88
2022/10/17 11:20:52;;;;;;;6.32;2.65;;;22.10;99.90;;;;;;4859685;29;20234;-88
2022/10/17 11:23:47;;;;;;;4.13;2.90;;;22.30;99.90;;;;;;4858638;29;20269;-88
2022/10/17 11:26:26;;;;;;;4.18;2.53;;;22.30;99.90;;;;;;4868476;29;20172;-88
2022/10/17 11:28:57;;;;;;;2.95;2.45;;;22.40;99.90;;;;;;4863275;29;20184;-88
2022/10/17 11:31:29;;;;;;;5.13;2.80;;;22.50;99.90;;;;;;4863346;29;20185;-89
2022/10/17 11:34:18;;;;;;;3.90;2.60;;;22.60;99.90;;;;;;4863375;29;20336;-88
2022/10/17 11:36:46;;;;;;;3.33;2.22;;;22.80;99.90;;;;;;4862958;29;20212;-88
2022/10/17 11:39:47;;;;;;;5.22;2.72;;;22.90;99.90;;;;;;4863553;29;20188;-88
2022/10/17 11:42:30;;;;;;;4.20;2.70;;;23.00;99.90;;;;;;4846629;29;20216;-88
2022/10/17 11:45:11;;;;;;;3.70;2.65;;;23.10;99.90;;;;;;4847871;29;20219;-88
2022/10/17 11:48:00;;;;;;;4.70;2.75;;;23.30;99.90;;;;;;4847266;29;20192;-88
2022/10/17 11:50:36;;;;;;;2.78;2.40;;;23.40;99.90;;;;;;4862525;29;20627;-89
2022/10/17 11:53:18;;;;;;;2.47;2.20;;;23.60;99.90;;;;;;4862307;29;20280;-88
2022/10/17 11:55:46;;;;;;;4.03;2.58;;;23.80;99.90;;;;;;4863613;29;20173;-88
2022/10/17 11:58:20;;;;;;;4.05;2.60;;;23.90;99.90;;;;;;4862055;29;20239;-88
2022/10/17 12:01:17;;;;;;;4.45;2.58;;;24.10;99.90;;;;;;4847008;29;20184;-88
2022/10/17 12:04:29;;;;;;;3.33;1.85;;;24.10;99.90;;;;;;4846993;29;20204;-88
2022/10/17 12:07:13;;;;;;;5.25;1.85;;;24.20;99.90;;;;;;4843983;29;20185;-88
2022/10/17 12:09:39;;;;;;;3.05;1.67;;;24.40;99.90;;;;;;4828864;29;20226;-89
2022/10/17 12:12:06;;;;;;;3.47;1.70;;;24.50;99.90;;;;;;4843735;29;20240;-89
2022/10/17 12:14:45;;;;;;;1.65;1.30;;;24.60;99.90;;;;;;4842834;29;20193;-88
2022/10/17 12:17:32;;;;;;;3.60;1.40;;;24.70;99.90;;;;;;4861994;29;20208;-89
2022/10/17 12:20:17;;;;;;;3.05;1.58;;;24.70;99.90;;;;;;4862237;29;20181;-89
2022/10/17 12:22:47;;;;;;;4.47;1.60;;;24.80;99.90;;;;;;4861796;29;20260;-88
2022/10/17 12:25:22;;;;;;;2.90;1.15;;;24.90;99.90;;;;;;4861785;29;20189;-89
2022/10/17 12:27:51;;;;;;;2.17;1.08;;;24.80;99.90;;;;;;4828064;29;20187;-88
2022/10/17 12:30:25;;;;;;;3.05;1.30;;;24.90;99.90;;;;;;4843298;29;20222;-88
2022/10/17 12:33:05;;;;;;;3.35;1.35;;;24.90;99.90;;;;;;4867163;29;20224;-89
2022/10/17 12:35:33;;;;;;;2.60;1.55;;;24.90;99.90;;;;;;4859924;29;20275;-88
2022/10/17 12:38:02;;;;;;;2.50;1.40;;;25.00;99.90;;;;;;4845427;29;20215;-89
2022/10/17 12:40:34;;;;;;;4.65;1.30;;;25.00;99.90;;;;;;4861437;29;20196;-89
2022/10/17 12:46:42;;;;;;;1.67;1.30;;;25.10;99.90;;;;;;4877148;29;20188;-89
2022/10/17 12:49:44;;;;;;;1.70;1.17;;;25.10;99.90;;;;;;4843195;29;20177;-89
2022/10/17 12:52:34;;;;;;;3.35;1.23;;;25.00;99.90;;;;;;4855893;29;20200;-89
2022/10/17 12:55:03;;;;;;;2.72;1.30;;;25.10;99.90;;;;;;4861631;29;20208;-89
2022/10/17 12:57:32;;;;;;;1.45;0.95;;;25.10;99.90;;;;;;4860555;29;20553;-89
2022/10/17 13:00:21;;;;;;;4.40;1.55;;;25.10;99.90;;;;;;4861011;29;20233;-88
2022/10/17 13:02:51;;;;;;;1.60;1.10;;;25.10;99.90;;;;;;4849985;29;20205;-89
2022/10/17 13:05:32;;;;;;;5.68;1.27;;;25.10;99.90;;;;;;4864696;29;20220;-89
2022/10/17 13:08:01;;;;;;;2.83;1.33;;;25.10;99.90;;;;;;4860968;29;20176;-89
2022/10/17 13:10:30;;;;;;;2.63;1.48;;;25.10;99.90;;;;;;4861609;29;20185;-90
2022/10/17 13:13:23;;;;;;;3.10;1.33;;;25.10;99.90;;;;;;4861346;29;20201;-89
2022/10/17 13:15:51;;;;;;;1.75;1.30;;;25.10;99.90;;;;;;4831188;29;20205;-79
2022/10/17 13:18:21;;;;;;;3.88;1.25;;;25.20;99.90;;;;;;4861405;29;20209;-79
2022/10/17 13:21:00;;;;;;;5.57;1.40;;;25.30;99.90;;;;;;4861948;29;20173;-78
2022/10/17 13:23:31;;;;;;;2.47;1.55;;;25.30;99.90;;;;;;4861797;29;20336;-81
2022/10/17 13:26:14;;;;;;;2.55;1.50;;;25.30;99.90;;;;;;4843201;29;20236;-83
2022/10/17 13:29:01;;;;;;;3.63;1.27;;;25.40;99.90;;;;;;4845810;29;20189;-90
2022/10/17 13:31:34;;;;;;;1.90;1.20;;;25.50;99.90;;;;;;4844563;29;20254;-90
2022/10/17 13:34:05;;;;;;;2.58;1.30;;;25.50;99.90;;;;;;4846222;29;20678;-89
2022/10/17 13:36:32;;;;;;;2.70;1.25;;;25.50;99.90;;;;;;4827289;29;20237;-90
2022/10/17 13:39:05;;;;;;;2.50;1.50;;;25.50;99.90;;;;;;4851042;29;20228;-89
2022/10/17 13:41:34;;;;;;;3.08;1.33;;;25.60;99.90;;;;;;4876246;29;20738;-90
2022/10/17 13:44:36;;;;;;;2.10;1.27;;;25.60;99.90;;;;;;4861120;29;20184;-90